Time;durP1;ratioP1;P1;durP2;ratioP2;P2;SDS_P1;SDS_P2;PMS_P1;PMS_P2;Temp;Humidity;BMP_temperature;BMP_pressure;BME280_temperature;BME280_humidity;BME280_pressure;Samples;Min_cycle;Max_cycle;Signal;HPM_P1;HPM_P2
2023/11/29 00:00:42;;;;;;;5.90;5.10;;;;;;;-1.12;100.00;96581.69;6217743;28;20781;-43
2023/11/29 00:03:44;;;;;;;6.00;5.27;;;;;;;-1.08;100.00;96580.31;6217676;28;20201;-42
2023/11/29 00:06:46;;;;;;;7.17;5.50;;;;;;;-1.17;100.00;96592.72;6217764;28;20579;-42
2023/11/29 00:09:48;;;;;;;6.47;4.90;;;;;;;-1.31;100.00;96578.78;6214580;28;20685;-42
2023/11/29 00:12:50;;;;;;;6.97;5.37;;;;;;;-1.02;100.00;96594.41;6217511;28;20197;-43
2023/11/29 00:15:52;;;;;;;7.73;5.27;;;;;;;-0.92;100.00;96598.25;6233603;28;20277;-43
2023/11/29 00:18:54;;;;;;;7.13;4.83;;;;;;;-0.94;100.00;96604.66;6217065;28;20254;-43
2023/11/29 00:21:57;;;;;;;8.20;5.53;;;;;;;-0.89;100.00;96600.47;6217379;28;20747;-43
2023/11/29 00:24:59;;;;;;;7.37;5.77;;;;;;;-0.79;100.00;96605.31;6217339;28;20596;-44
2023/11/29 00:28:01;;;;;;;6.27;4.80;;;;;;;-0.73;100.00;96606.38;6217639;28;20220;-42
2023/11/29 00:31:03;;;;;;;6.97;5.03;;;;;;;-0.94;100.00;96595.00;6216756;28;20204;-42
2023/11/29 00:34:05;;;;;;;5.77;5.20;;;;;;;-0.89;100.00;96597.84;6217127;28;20600;-43
2023/11/29 00:37:10;;;;;;;5.40;4.50;;;;;;;-0.99;100.00;96600.03;6216850;28;20193;-44
2023/11/29 00:40:12;;;;;;;5.57;4.90;;;;;;;-0.93;100.00;96601.88;6217196;28;20205;-42
2023/11/29 00:43:14;;;;;;;6.80;5.20;;;;;;;-1.05;100.00;96604.22;6217513;28;20208;-43
2023/11/29 00:46:17;;;;;;;5.50;4.90;;;;;;;-1.13;100.00;96612.25;6216439;28;20567;-42
2023/11/29 00:49:19;;;;;;;6.40;5.07;;;;;;;-1.21;100.00;96620.25;6217749;28;20221;-42
2023/11/29 00:52:21;;;;;;;7.53;4.87;;;;;;;-1.20;100.00;96616.63;6196713;28;20201;-44
2023/11/29 00:55:23;;;;;;;5.87;4.73;;;;;;;-1.30;100.00;96629.22;6217560;28;20188;-42
2023/11/29 00:58:35;;;;;;;6.50;4.80;;;;;;;-1.36;100.00;96636.03;6217459;28;20292;-44
2023/11/29 01:01:38;;;;;;;6.63;5.17;;;;;;;-1.25;100.00;96636.50;6199739;28;20288;-45
2023/11/29 01:04:41;;;;;;;6.33;5.20;;;;;;;-1.30;100.00;96643.09;6219136;28;20200;-44
2023/11/29 01:07:43;;;;;;;5.40;4.60;;;;;;;-1.27;100.00;96654.19;6220676;28;20576;-45
2023/11/29 01:10:45;;;;;;;5.63;5.03;;;;;;;-1.28;100.00;96673.44;6220988;28;20211;-44
2023/11/29 01:13:47;;;;;;;6.00;4.93;;;;;;;-1.34;100.00;96660.16;6220972;28;20653;-43
2023/11/29 01:16:49;;;;;;;5.83;4.97;;;;;;;-1.34;100.00;96654.13;6218575;28;20205;-44
2023/11/29 01:19:51;;;;;;;6.37;5.10;;;;;;;-1.37;100.00;96657.13;6220115;28;20196;-43
2023/11/29 01:22:53;;;;;;;6.00;5.23;;;;;;;-1.39;100.00;96661.72;6203039;28;20208;-43
2023/11/29 01:25:55;;;;;;;7.97;5.10;;;;;;;-1.33;100.00;96661.78;6217560;28;20212;-45
2023/11/29 01:28:57;;;;;;;7.07;5.47;;;;;;;-1.38;100.00;96674.63;6221105;28;20216;-42
2023/11/29 01:31:59;;;;;;;5.60;4.87;;;;;;;-1.54;100.00;96677.50;6202857;28;20240;-43
2023/11/29 01:35:01;;;;;;;6.17;5.27;;;;;;;-1.48;100.00;96675.94;6212223;28;20200;-43
2023/11/29 01:38:03;;;;;;;6.97;5.40;;;;;;;-1.64;100.00;96682.25;6196368;28;20204;-42
2023/11/29 01:41:05;;;;;;;6.50;5.30;;;;;;;-1.60;100.00;96693.94;6206908;28;20189;-43
2023/11/29 01:44:08;;;;;;;6.97;5.00;;;;;;;-1.51;100.00;96700.63;6204738;28;20284;-43
2023/11/29 01:47:14;;;;;;;6.03;4.80;;;;;;;-1.64;100.00;96664.78;6153517;28;20204;-44
2023/11/29 01:50:18;;;;;;;6.60;5.20;;;;;;;-1.69;100.00;96676.78;6186159;28;20753;-42
2023/11/29 01:53:24;;;;;;;6.17;4.97;;;;;;;-1.70;100.00;96698.69;6199602;28;20255;-44
2023/11/29 01:56:27;;;;;;;8.83;6.23;;;;;;;-1.66;100.00;96715.59;6197670;28;20194;-43
2023/11/29 01:59:30;;;;;;;6.63;5.10;;;;;;;-1.78;100.00;96712.66;6180404;28;20193;-42
2023/11/29 02:02:33;;;;;;;7.00;5.40;;;;;;;-1.75;100.00;96727.16;6178484;28;20201;-43
2023/11/29 02:05:36;;;;;;;6.97;5.13;;;;;;;-1.74;100.00;96732.19;6195670;28;20198;-44
2023/11/29 02:08:38;;;;;;;7.73;6.00;;;;;;;-1.76;100.00;96728.97;6183078;28;20314;-42
2023/11/29 02:11:42;;;;;;;8.00;6.23;;;;;;;-1.82;100.00;96737.53;6202243;28;20205;-44
2023/11/29 02:14:45;;;;;;;6.43;5.77;;;;;;;-1.83;100.00;96728.88;6198893;28;20201;-43
2023/11/29 02:17:49;;;;;;;8.93;6.50;;;;;;;-1.79;100.00;96736.34;6194282;28;20197;-43
2023/11/29 02:20:51;;;;;;;8.93;6.33;;;;;;;-1.87;100.00;96726.84;6196612;28;20244;-43
2023/11/29 02:24:12;;;;;;;7.07;5.97;;;;;;;-1.85;100.00;96733.50;6197141;28;20771;-45
2023/11/29 02:27:14;;;;;;;7.83;6.03;;;;;;;-1.88;100.00;96731.25;6188960;28;20460;-43
2023/11/29 02:30:16;;;;;;;8.00;6.23;;;;;;;-1.98;100.00;96729.94;6194300;28;20209;-43
2023/11/29 02:33:18;;;;;;;7.20;5.50;;;;;;;-1.86;100.00;96737.09;6192247;28;20244;-42
2023/11/29 02:36:20;;;;;;;6.60;5.27;;;;;;;-1.84;100.00;96739.50;6180820;28;20299;-43
2023/11/29 02:39:22;;;;;;;6.57;5.03;;;;;;;-2.04;100.00;96702.00;6205579;28;20673;-44
2023/11/29 02:42:25;;;;;;;9.10;6.10;;;;;;;-1.93;100.00;96727.59;6207519;28;20222;-44
2023/11/29 02:45:27;;;;;;;7.93;6.20;;;;;;;-1.97;100.00;96749.81;6210047;28;20541;-43
2023/11/29 02:48:29;;;;;;;8.47;5.90;;;;;;;-1.87;100.00;96750.34;6193038;28;20571;-43
2023/11/29 02:51:32;;;;;;;6.27;5.37;;;;;;;-1.99;100.00;96741.38;6190252;28;20390;-42
2023/11/29 02:54:34;;;;;;;8.40;5.70;;;;;;;-1.93;100.00;96738.81;6188803;28;20308;-43
2023/11/29 02:57:36;;;;;;;8.77;5.77;;;;;;;-2.06;100.00;96750.97;6187804;28;20559;-44
2023/11/29 03:00:38;;;;;;;7.73;5.70;;;;;;;-2.06;100.00;96751.75;6190015;28;20283;-43
2023/11/29 03:03:41;;;;;;;7.97;5.97;;;;;;;-2.12;100.00;96752.47;6186560;28;20191;-42
2023/11/29 03:06:43;;;;;;;8.87;5.97;;;;;;;-2.17;100.00;96745.22;6193333;28;20205;-42
2023/11/29 03:09:46;;;;;;;7.73;6.10;;;;;;;-2.14;100.00;96752.66;6192997;28;20208;-43
2023/11/29 03:12:48;;;;;;;8.93;5.87;;;;;;;-2.12;100.00;96753.31;6185813;28;20185;-43
2023/11/29 03:15:51;;;;;;;8.57;5.77;;;;;;;-2.14;100.00;96750.06;6198512;28;20198;-42
2023/11/29 03:18:55;;;;;;;9.10;6.40;;;;;;;-2.00;100.00;96758.03;6197510;28;20915;-42
2023/11/29 03:21:57;;;;;;;9.63;6.63;;;;;;;-2.08;100.00;96764.16;6195073;28;20194;-42
2023/11/29 03:24:59;;;;;;;10.00;6.73;;;;;;;-2.13;100.00;96767.31;6201981;28;20307;-43
2023/11/29 03:28:01;;;;;;;9.50;6.67;;;;;;;-2.24;100.00;96761.78;6186730;28;20198;-42
2023/11/29 03:31:05;;;;;;;10.73;6.90;;;;;;;-2.27;100.00;96773.38;6182369;28;20213;-44
2023/11/29 03:34:08;;;;;;;11.17;7.10;;;;;;;-2.30;100.00;96778.97;6191744;28;20773;-43
2023/11/29 03:37:11;;;;;;;9.93;7.30;;;;;;;-2.31;100.00;96773.97;6192784;28;20200;-43
2023/11/29 03:40:13;;;;;;;8.97;6.97;;;;;;;-2.29;100.00;96783.22;6191066;28;20193;-46
2023/11/29 03:43:15;;;;;;;11.60;6.70;;;;;;;-2.30;100.00;96791.22;6193907;28;20216;-46
2023/11/29 03:46:18;;;;;;;9.70;7.57;;;;;;;-2.32;100.00;96799.22;6171930;28;20662;-43
2023/11/29 03:49:20;;;;;;;9.33;6.70;;;;;;;-2.32;100.00;96794.00;6191535;28;20309;-44
2023/11/29 03:52:24;;;;;;;9.70;7.27;;;;;;;-2.30;100.00;96799.03;6193681;28;20692;-43
2023/11/29 03:55:26;;;;;;;9.00;6.57;;;;;;;-2.30;100.00;96794.63;6193523;28;21100;-42
2023/11/29 03:58:28;;;;;;;9.07;6.93;;;;;;;-2.32;100.00;96801.81;6193062;28;20203;-43
2023/11/29 04:01:32;;;;;;;9.50;6.97;;;;;;;-2.28;100.00;96810.09;6177426;28;20594;-43
2023/11/29 04:04:39;;;;;;;8.93;7.00;;;;;;;-2.29;100.00;96813.69;6193723;28;20212;-43
2023/11/29 04:07:41;;;;;;;6.90;5.80;;;;;;;-2.27;100.00;96817.72;6193359;28;20226;-42
2023/11/29 04:10:44;;;;;;;9.00;6.67;;;;;;;-2.25;100.00;96817.56;6175554;28;20237;-43
2023/11/29 04:13:46;;;;;;;9.10;6.47;;;;;;;-2.24;100.00;96812.16;6193089;28;20205;-42
2023/11/29 04:16:49;;;;;;;9.80;6.63;;;;;;;-2.23;100.00;96805.13;6173622;28;20201;-42
2023/11/29 04:19:51;;;;;;;8.53;5.90;;;;;;;-2.22;100.00;96811.97;6193452;28;20234;-44
2023/11/29 04:22:53;;;;;;;9.80;6.80;;;;;;;-2.23;100.00;96803.34;6193104;28;20303;-44
2023/11/29 04:25:55;;;;;;;8.93;6.60;;;;;;;-2.23;100.00;96802.53;6192395;28;20198;-42
2023/11/29 04:28:59;;;;;;;10.03;6.87;;;;;;;-2.23;100.00;96805.13;6192993;28;20807;-42
2023/11/29 04:32:02;;;;;;;7.80;5.97;;;;;;;-2.22;100.00;96806.75;6193609;28;20319;-43
2023/11/29 04:35:05;;;;;;;9.00;6.53;;;;;;;-2.24;100.00;96806.94;6192155;28;20503;-44
2023/11/29 04:38:09;;;;;;;8.93;6.47;;;;;;;-2.22;100.00;96806.75;6182870;28;20293;-42
2023/11/29 04:41:12;;;;;;;10.40;6.97;;;;;;;-2.29;100.00;96792.84;6182064;28;20209;-44
2023/11/29 04:44:14;;;;;;;10.93;7.17;;;;;;;-2.26;100.00;96795.91;6192909;28;20193;-43
2023/11/29 04:47:18;;;;;;;7.97;6.77;;;;;;;-2.26;100.00;96795.09;6193172;28;20212;-42
2023/11/29 04:50:20;;;;;;;7.57;5.93;;;;;;;-2.25;100.00;96804.53;6179280;28;20674;-42
2023/11/29 04:53:23;;;;;;;9.70;6.57;;;;;;;-2.40;100.00;96791.50;6198841;28;20201;-44
2023/11/29 04:56:25;;;;;;;10.40;6.43;;;;;;;-2.26;100.00;96802.91;6197763;28;20193;-45
2023/11/29 04:59:30;;;;;;;9.30;6.47;;;;;;;-2.24;100.00;96806.13;6196416;28;20192;-42
2023/11/29 05:02:33;;;;;;;9.33;6.80;;;;;;;-2.24;100.00;96803.53;6193931;28;20197;-44
2023/11/29 05:05:35;;;;;;;7.80;6.57;;;;;;;-2.26;100.00;96808.94;6191463;28;20654;-42
2023/11/29 05:08:38;;;;;;;6.73;5.90;;;;;;;-2.23;100.00;96813.78;6207442;28;20205;-42
2023/11/29 05:11:41;;;;;;;7.70;5.63;;;;;;;-2.19;100.00;96815.03;6201263;28;20197;-43
2023/11/29 05:14:43;;;;;;;7.83;5.47;;;;;;;-2.20;100.00;96812.59;6201696;28;20193;-44
2023/11/29 05:17:45;;;;;;;8.47;6.50;;;;;;;-2.22;100.00;96815.38;6192159;28;20197;-43
2023/11/29 05:20:47;;;;;;;9.40;6.73;;;;;;;-2.22;100.00;96814.56;6195393;28;20185;-43
2023/11/29 05:23:50;;;;;;;9.03;6.80;;;;;;;-2.24;100.00;96808.75;6191068;28;20685;-42
2023/11/29 05:26:52;;;;;;;11.03;7.03;;;;;;;-2.23;100.00;96820.78;6188763;28;20255;-42
2023/11/29 05:29:54;;;;;;;8.30;6.60;;;;;;;-2.24;100.00;96814.75;6189521;28;20218;-42
2023/11/29 05:32:56;;;;;;;9.70;6.90;;;;;;;-2.25;100.00;96812.34;6188974;28;20225;-44
2023/11/29 05:35:58;;;;;;;7.47;6.10;;;;;;;-2.27;100.00;96811.72;6180365;28;20217;-44
2023/11/29 05:39:02;;;;;;;8.73;6.53;;;;;;;-2.30;100.00;96833.75;6192083;28;20182;-43
2023/11/29 05:42:05;;;;;;;7.60;6.40;;;;;;;-2.31;100.00;96836.56;6208169;28;20604;-42
2023/11/29 05:45:09;;;;;;;9.60;7.33;;;;;;;-2.34;100.00;96835.09;6202163;28;20259;-43
2023/11/29 05:48:12;;;;;;;9.80;6.83;;;;;;;-2.37;100.00;96833.66;6199452;28;20209;-43
2023/11/29 05:51:14;;;;;;;8.40;6.10;;;;;;;-2.39;100.00;96834.84;6197407;28;20652;-43
2023/11/29 05:54:17;;;;;;;8.87;6.37;;;;;;;-2.44;100.00;96845.81;6191389;28;20921;-42
2023/11/29 05:57:20;;;;;;;7.97;6.30;;;;;;;-2.49;100.00;96849.94;6188262;28;20194;-42
2023/11/29 06:00:22;;;;;;;6.97;5.57;;;;;;;-2.54;100.00;96860.91;6163539;28;20185;-43
2023/11/29 06:03:33;;;;;;;8.10;5.73;;;;;;;-2.60;100.00;96846.00;6182801;28;20202;-43
2023/11/29 06:06:35;;;;;;;9.47;6.67;;;;;;;-2.64;100.00;96861.19;6186388;28;20209;-43
2023/11/29 06:09:39;;;;;;;8.27;5.80;;;;;;;-2.71;100.00;96857.69;6209970;28;20731;-42
2023/11/29 06:12:41;;;;;;;8.20;6.20;;;;;;;-2.80;100.00;96857.94;6200654;28;20277;-44
2023/11/29 06:15:43;;;;;;;8.17;6.47;;;;;;;-2.94;100.00;96867.34;6204313;28;20208;-44
2023/11/29 06:18:46;;;;;;;8.47;6.63;;;;;;;-3.10;100.00;96870.91;6198297;28;20630;-44
2023/11/29 06:21:48;;;;;;;10.17;6.67;;;;;;;-3.37;100.00;96846.22;6201276;28;20332;-43
2023/11/29 06:24:51;;;;;;;8.67;6.50;;;;;;;-3.23;100.00;96866.28;6195876;28;20202;-44
2023/11/29 06:27:53;;;;;;;9.60;6.53;;;;;;;-3.43;100.00;96858.13;6196931;28;20243;-42
2023/11/29 06:30:55;;;;;;;8.93;6.77;;;;;;;-3.40;100.00;96875.19;6178013;28;20268;-43
2023/11/29 06:33:58;;;;;;;7.97;6.07;;;;;;;-3.41;100.00;96871.78;6196762;28;20668;-45
2023/11/29 06:37:02;;;;;;;10.30;6.97;;;;;;;-3.46;100.00;96871.50;6209215;28;20197;-43
2023/11/29 06:40:10;;;;;;;8.80;6.73;;;;;;;-3.55;100.00;96880.34;6205990;28;20608;-44
2023/11/29 06:43:13;;;;;;;9.13;7.43;;;;;;;-3.55;100.00;96875.13;6196012;28;20682;-43
2023/11/29 06:46:15;;;;;;;8.43;6.50;;;;;;;-3.54;100.00;96875.97;6188651;28;20244;-43
2023/11/29 06:49:17;;;;;;;7.97;6.03;;;;;;;-3.48;100.00;96870.06;6175009;28;20213;-43
2023/11/29 06:52:26;;;;;;;7.67;5.70;;;;;;;-3.22;100.00;96872.28;6187949;28;20201;-42
2023/11/29 06:55:28;;;;;;;8.47;6.20;;;;;;;-3.19;100.00;96869.34;6192200;28;20202;-43
2023/11/29 06:58:31;;;;;;;5.47;4.60;;;;;;;-3.09;100.00;96869.13;6190031;28;20193;-44
2023/11/29 07:01:33;;;;;;;5.83;4.70;;;;;;;-3.04;100.00;96866.78;6193972;28;20189;-44
2023/11/29 07:04:40;;;;;;;5.57;4.47;;;;;;;-3.09;100.00;96877.75;6193212;28;20202;-45
2023/11/29 07:07:42;;;;;;;5.43;4.13;;;;;;;-3.14;100.00;96874.84;6197367;28;20192;-45
2023/11/29 07:10:44;;;;;;;5.60;4.33;;;;;;;-3.25;100.00;96868.25;6195999;28;20220;-43
2023/11/29 07:13:46;;;;;;;5.87;4.70;;;;;;;-3.31;100.00;96868.13;6196885;28;20630;-43
2023/11/29 07:16:49;;;;;;;5.33;4.30;;;;;;;-3.28;100.00;96854.78;6200549;28;20193;-43
2023/11/29 07:19:51;;;;;;;5.70;4.60;;;;;;;-3.21;100.00;96861.69;6200038;28;20761;-45
2023/11/29 07:22:54;;;;;;;5.03;4.13;;;;;;;-3.17;100.00;96877.78;6197366;28;20189;-44
2023/11/29 07:25:56;;;;;;;5.67;4.47;;;;;;;-3.09;100.00;96867.31;6198067;28;20228;-44
2023/11/29 07:29:00;;;;;;;4.87;4.00;;;;;;;-2.53;100.00;96859.94;6180996;28;20673;-42
2023/11/29 07:32:02;;;;;;;5.50;4.10;;;;;;;-2.42;100.00;96882.94;6181377;28;20650;-42
2023/11/29 07:35:05;;;;;;;5.47;3.90;;;;;;;-2.53;100.00;96906.88;6193941;28;20205;-43
2023/11/29 07:38:09;;;;;;;5.43;4.20;;;;;;;-2.48;100.00;96899.31;6193433;28;20292;-43
2023/11/29 07:41:11;;;;;;;4.20;3.70;;;;;;;-2.53;100.00;96900.84;6192101;28;20197;-43
2023/11/29 07:44:14;;;;;;;4.43;3.80;;;;;;;-2.60;100.00;96905.97;6193154;28;20211;-42
2023/11/29 07:47:16;;;;;;;4.13;3.73;;;;;;;-2.68;100.00;96908.63;6193686;28;20279;-45
2023/11/29 07:50:20;;;;;;;3.60;3.30;;;;;;;-2.75;100.00;96905.94;6193206;28;20201;-45
2023/11/29 07:53:23;;;;;;;4.80;4.07;;;;;;;-2.81;100.00;96913.63;6193774;28;20760;-43
2023/11/29 07:56:25;;;;;;;5.17;4.13;;;;;;;-2.88;100.00;96906.53;6193245;28;20275;-42
2023/11/29 07:59:27;;;;;;;4.97;4.00;;;;;;;-2.82;100.00;96923.25;6193244;28;20228;-43
2023/11/29 08:02:29;;;;;;;4.73;3.97;;;;;;;-2.86;100.00;96916.78;6193044;28;20224;-42
2023/11/29 08:05:33;;;;;;;4.90;4.40;;;;;;;-2.90;100.00;96926.75;6175851;28;20201;-42
2023/11/29 08:08:36;;;;;;;5.03;3.83;;;;;;;-2.88;100.00;96930.00;6194350;28;20287;-43
2023/11/29 08:11:39;;;;;;;4.77;4.00;;;;;;;-2.72;100.00;96930.81;6194072;28;20239;-43
2023/11/29 08:14:41;;;;;;;4.47;3.90;;;;;;;-2.58;100.00;96931.84;6193800;28;20634;-46
2023/11/29 08:17:43;;;;;;;4.43;3.67;;;;;;;-2.25;100.00;96927.13;6175287;28;20581;-47
2023/11/29 08:20:46;;;;;;;3.70;2.90;;;;;;;-2.04;100.00;96931.63;6176126;28;20302;-51
2023/11/29 08:23:49;;;;;;;3.57;3.10;;;;;;;-1.92;100.00;96935.38;6194006;28;20189;-46
2023/11/29 08:26:51;;;;;;;4.37;3.00;;;;;;;-1.88;100.00;96937.44;6177273;28;20209;-46
2023/11/29 08:29:54;;;;;;;3.80;3.27;;;;;;;-1.72;98.61;96952.13;6194642;28;20232;-47
2023/11/29 08:32:57;;;;;;;3.33;2.87;;;;;;;-1.57;95.84;96942.47;6181163;28;20299;-46
2023/11/29 08:35:59;;;;;;;3.20;2.60;;;;;;;-1.42;94.82;96937.19;6216669;28;20192;-48
2023/11/29 08:39:01;;;;;;;2.87;2.50;;;;;;;-1.27;95.42;96933.75;6219015;28;20188;-48
2023/11/29 08:42:04;;;;;;;3.67;2.37;;;;;;;-1.24;97.34;96954.25;6218414;28;20267;-45
2023/11/29 08:45:08;;;;;;;2.73;2.40;;;;;;;-1.16;98.77;96967.22;6218727;28;20201;-45
2023/11/29 08:48:10;;;;;;;2.83;2.40;;;;;;;-1.18;98.31;96967.41;6218772;28;20196;-47
2023/11/29 08:51:16;;;;;;;3.07;2.77;;;;;;;-1.33;100.00;96967.44;6218289;28;20723;-45
2023/11/29 08:54:20;;;;;;;2.97;2.70;;;;;;;-1.26;99.24;96970.13;6218368;28;20302;-46
2023/11/29 08:57:24;;;;;;;3.30;2.67;;;;;;;-1.24;100.00;96975.97;6218586;28;20196;-47
2023/11/29 09:00:26;;;;;;;2.80;2.50;;;;;;;-1.17;100.00;96978.66;6217901;28;20197;-45
2023/11/29 09:03:28;;;;;;;3.07;2.63;;;;;;;-1.10;100.00;96959.44;6218328;28;20204;-46
2023/11/29 09:06:31;;;;;;;2.50;2.30;;;;;;;-1.01;100.00;96957.50;6218486;28;20196;-46
2023/11/29 09:09:33;;;;;;;3.17;2.77;;;;;;;-0.92;100.00;96964.25;6217682;28;20201;-48
2023/11/29 09:12:35;;;;;;;3.80;3.10;;;;;;;-0.87;100.00;96959.25;6218340;28;20195;-48
2023/11/29 09:15:38;;;;;;;3.20;2.63;;;;;;;-0.74;100.00;96968.22;6218033;28;20189;-47
2023/11/29 09:18:40;;;;;;;2.87;2.57;;;;;;;-0.65;100.00;96967.09;6216231;28;20212;-49
2023/11/29 09:21:42;;;;;;;3.30;3.00;;;;;;;-0.53;97.16;96970.81;6218053;28;20240;-45
2023/11/29 09:24:44;;;;;;;4.07;3.00;;;;;;;-0.35;88.11;96968.53;6218122;28;20196;-46
2023/11/29 09:27:48;;;;;;;2.37;2.17;;;;;;;-0.17;89.86;96975.91;6222349;28;20200;-46
2023/11/29 09:30:50;;;;;;;3.50;2.63;;;;;;;0.00;89.88;96965.97;6222125;28;20213;-53
2023/11/29 09:33:52;;;;;;;2.97;2.67;;;;;;;-0.04;90.36;96962.09;6209811;28;20236;-46
2023/11/29 09:36:59;;;;;;;3.30;3.00;;;;;;;-0.05;94.95;96965.69;6207677;28;20211;-45
2023/11/29 09:40:05;;;;;;;4.17;2.60;;;;;;;-0.14;90.38;96967.69;6213187;28;20189;-45
2023/11/29 09:43:08;;;;;;;3.63;2.97;;;;;;;-0.26;93.77;96950.88;6222073;28;20809;-45
2023/11/29 09:46:10;;;;;;;3.10;2.80;;;;;;;-0.13;91.98;96976.34;6213515;28;20688;-45
2023/11/29 09:49:12;;;;;;;3.23;2.93;;;;;;;-0.17;91.18;96972.50;6198765;28;20197;-45
2023/11/29 09:52:15;;;;;;;3.10;2.90;;;;;;;-0.10;93.11;96968.09;6199824;28;20211;-45
2023/11/29 09:55:18;;;;;;;3.00;2.60;;;;;;;-0.02;92.81;96960.91;6214443;28;20254;-49
2023/11/29 09:58:20;;;;;;;4.97;3.40;;;;;;;-0.07;89.96;96944.16;6221343;28;20203;-46
2023/11/29 10:01:22;;;;;;;4.10;3.47;;;;;;;-0.01;92.75;96964.31;6214809;28;20185;-45
2023/11/29 10:04:24;;;;;;;3.33;3.00;;;;;;;-0.13;91.61;96965.88;6205444;28;20201;-44
2023/11/29 10:07:27;;;;;;;3.80;3.30;;;;;;;-0.12;92.54;96967.47;6208209;28;20601;-45
2023/11/29 10:10:38;;;;;;;4.60;2.90;;;;;;;-0.01;93.71;96964.31;6215866;28;20519;-44
2023/11/29 10:13:41;;;;;;;3.17;2.87;;;;;;;0.10;93.40;96955.13;6208367;28;20621;-45
2023/11/29 10:16:47;;;;;;;3.13;2.83;;;;;;;0.10;91.79;96958.56;6210162;28;20215;-45
2023/11/29 10:19:49;;;;;;;3.30;3.00;;;;;;;0.18;90.51;96953.16;6205741;28;20204;-44
2023/11/29 10:22:51;;;;;;;5.23;3.67;;;;;;;0.33;91.84;96954.84;6204795;28;20204;-45
2023/11/29 10:25:56;;;;;;;3.20;2.90;;;;;;;0.30;89.29;96934.28;6217117;28;20201;-45
2023/11/29 10:28:58;;;;;;;3.43;3.13;;;;;;;0.34;90.37;96944.16;6219201;28;20657;-45
2023/11/29 10:32:03;;;;;;;3.90;3.60;;;;;;;0.35;90.18;96945.00;6212029;28;20983;-46
2023/11/29 10:35:09;;;;;;;4.70;3.00;;;;;;;0.39;91.13;96943.56;6201266;28;20296;-45
2023/11/29 10:38:12;;;;;;;4.00;3.20;;;;;;;0.37;90.67;96938.53;6212941;28;20315;-51
2023/11/29 10:41:17;;;;;;;4.20;3.07;;;;;;;0.35;90.44;96932.69;6219006;28;20198;-48
2023/11/29 10:44:24;;;;;;;3.60;3.20;;;;;;;0.22;90.15;96932.63;6219986;28;20185;-46
2023/11/29 10:47:34;;;;;;;4.00;3.50;;;;;;;0.21;92.98;96929.19;6208909;28;20237;-46
2023/11/29 10:50:38;;;;;;;4.00;3.60;;;;;;;0.15;94.47;96924.75;6180217;28;20293;-47
2023/11/29 10:53:41;;;;;;;3.47;3.17;;;;;;;-0.03;93.48;96937.53;6198755;28;20204;-48
2023/11/29 10:56:45;;;;;;;3.90;3.50;;;;;;;-0.05;90.94;96924.66;6203355;28;20230;-46
2023/11/29 11:00:04;;;;;;;3.77;3.43;;;;;;;-0.21;92.16;96934.59;6206952;28;20726;-49
2023/11/29 11:03:08;;;;;;;4.17;3.77;;;;;;;-0.31;91.17;96933.13;6202743;28;20218;-46
2023/11/29 11:06:23;;;;;;;4.47;3.60;;;;;;;-0.39;96.80;96941.16;6201072;28;20199;-49
2023/11/29 11:09:40;;;;;;;3.67;3.27;;;;;;;-0.49;96.09;96932.81;6198194;28;20213;-50
2023/11/29 11:12:43;;;;;;;4.77;3.83;;;;;;;-0.45;97.66;96944.50;6202942;28;20204;-49
2023/11/29 11:15:47;;;;;;;4.73;3.70;;;;;;;-0.38;94.94;96932.28;6202847;28;20205;-49
2023/11/29 11:18:55;;;;;;;4.77;3.70;;;;;;;-0.31;93.88;96937.56;6195262;28;20196;-46
2023/11/29 11:21:57;;;;;;;3.97;3.57;;;;;;;-0.32;98.61;96938.56;6219062;28;20323;-47
2023/11/29 11:25:07;;;;;;;4.73;3.70;;;;;;;-0.36;95.24;96937.31;6208957;28;20201;-46
2023/11/29 11:28:34;;;;;;;5.03;4.20;;;;;;;-0.36;94.28;96929.47;6213815;28;20209;-49
2023/11/29 11:31:37;;;;;;;4.10;3.60;;;;;;;-0.30;94.46;96932.13;6212025;28;20217;-47
2023/11/29 11:34:39;;;;;;;4.93;4.20;;;;;;;-0.18;91.08;96926.38;6201560;28;20201;-51
2023/11/29 11:37:46;;;;;;;5.40;4.30;;;;;;;-0.06;92.25;96930.88;6209292;28;20334;-49
2023/11/29 11:40:48;;;;;;;4.83;4.23;;;;;;;0.01;96.42;96917.84;6190436;28;20199;-46
2023/11/29 11:43:51;;;;;;;5.17;4.60;;;;;;;0.02;89.75;96923.88;6196128;28;20679;-46
2023/11/29 11:46:53;;;;;;;5.83;4.90;;;;;;;0.18;88.98;96919.09;6189289;28;20201;-47
2023/11/29 11:49:56;;;;;;;6.20;4.83;;;;;;;0.16;91.76;96933.41;6212517;28;20200;-49
2023/11/29 11:53:03;;;;;;;7.23;4.93;;;;;;;0.16;90.47;96921.13;6183782;28;20570;-47
2023/11/29 11:56:17;;;;;;;6.27;5.13;;;;;;;-0.06;92.49;96896.03;6199356;28;20274;-49
2023/11/29 11:59:20;;;;;;;6.00;5.00;;;;;;;-0.03;92.43;96927.06;6206210;28;20227;-47
2023/11/29 12:02:22;;;;;;;5.73;5.00;;;;;;;0.03;87.33;96925.47;6199270;28;20650;-48
2023/11/29 12:05:24;;;;;;;6.83;5.50;;;;;;;0.02;87.78;96927.28;6210947;28;20196;-47
2023/11/29 12:08:26;;;;;;;6.80;5.57;;;;;;;-0.08;88.91;96919.78;6218869;28;20192;-50
2023/11/29 12:11:29;;;;;;;6.87;5.40;;;;;;;-0.11;89.43;96928.03;6208700;28;20509;-47
2023/11/29 12:14:31;;;;;;;7.60;6.07;;;;;;;-0.07;90.62;96924.03;6213792;28;20342;-46
2023/11/29 12:17:35;;;;;;;6.77;5.60;;;;;;;-0.16;89.88;96937.44;6209293;28;20238;-48
2023/11/29 12:20:42;;;;;;;7.60;5.60;;;;;;;-0.35;93.54;96926.66;6209537;28;20201;-46
2023/11/29 12:23:46;;;;;;;8.70;6.27;;;;;;;-0.35;91.34;96923.22;6208307;28;20898;-49
2023/11/29 12:26:51;;;;;;;7.97;6.40;;;;;;;-0.34;90.41;96930.91;6199210;28;20208;-46
2023/11/29 12:29:58;;;;;;;8.93;6.60;;;;;;;-0.22;86.95;96927.75;6169133;28;20650;-48
2023/11/29 12:33:01;;;;;;;7.23;6.27;;;;;;;-0.33;90.46;96919.44;6216431;28;20311;-47
2023/11/29 12:36:04;;;;;;;7.37;6.23;;;;;;;-0.34;90.28;96930.13;6212000;28;20195;-49
2023/11/29 12:39:06;;;;;;;6.97;5.73;;;;;;;-0.35;92.96;96925.84;6217233;28;20766;-46
2023/11/29 12:42:11;;;;;;;9.20;6.70;;;;;;;-0.38;93.65;96910.56;6218359;28;20592;-48
2023/11/29 12:45:14;;;;;;;7.60;6.03;;;;;;;-0.36;93.41;96934.72;6213678;28;20194;-48
2023/11/29 12:48:16;;;;;;;8.73;6.60;;;;;;;-0.37;92.34;96941.75;6203911;28;20220;-46
2023/11/29 12:51:18;;;;;;;7.90;5.87;;;;;;;-0.38;92.05;96932.28;6202692;28;20208;-46
2023/11/29 12:54:20;;;;;;;8.70;6.37;;;;;;;-0.46;98.42;96931.63;6210367;28;20544;-46
2023/11/29 12:57:25;;;;;;;8.90;6.80;;;;;;;-0.57;98.58;96933.75;6206267;28;20615;-46
2023/11/29 13:00:27;;;;;;;8.80;6.57;;;;;;;-0.44;93.02;96927.81;6197596;28;20196;-47
2023/11/29 13:03:29;;;;;;;7.80;6.10;;;;;;;-0.45;94.84;96930.63;6220793;28;20603;-48
2023/11/29 13:06:31;;;;;;;8.73;6.83;;;;;;;-0.50;94.07;96938.22;6208652;28;20666;-46
2023/11/29 13:09:33;;;;;;;8.53;6.60;;;;;;;-0.45;92.55;96931.41;6210490;28;20205;-46
2023/11/29 13:12:35;;;;;;;8.10;6.27;;;;;;;-0.45;95.49;96928.81;6206469;28;20927;-47
2023/11/29 13:15:37;;;;;;;7.40;5.90;;;;;;;-0.53;98.64;96926.34;6216079;28;20291;-48
2023/11/29 13:18:39;;;;;;;9.60;6.87;;;;;;;-0.64;100.00;96929.47;6216453;28;20295;-48
2023/11/29 13:21:41;;;;;;;8.47;6.30;;;;;;;-0.70;99.25;96925.00;6215019;28;20672;-46
2023/11/29 13:24:43;;;;;;;9.40;6.30;;;;;;;-0.42;92.14;96928.44;6203823;28;20194;-49
2023/11/29 13:27:46;;;;;;;8.07;6.13;;;;;;;-0.32;91.76;96928.91;6212388;28;20699;-48
2023/11/29 13:30:48;;;;;;;7.63;5.97;;;;;;;-0.27;89.21;96928.34;6202508;28;20645;-50
2023/11/29 13:33:51;;;;;;;7.93;5.67;;;;;;;-0.30;92.60;96929.50;6222274;28;20237;-50
2023/11/29 13:36:53;;;;;;;8.30;6.33;;;;;;;-0.48;96.32;96938.88;6211735;28;20615;-46
2023/11/29 13:39:55;;;;;;;6.93;6.03;;;;;;;-0.63;97.33;96938.94;6207555;28;20203;-46
2023/11/29 13:42:58;;;;;;;7.57;5.53;;;;;;;-0.72;98.48;96937.47;6205669;28;20201;-47
2023/11/29 13:46:00;;;;;;;8.57;6.67;;;;;;;-0.71;95.51;96942.50;6212125;28;20673;-46
2023/11/29 13:49:03;;;;;;;7.93;5.80;;;;;;;-0.70;96.32;96935.47;6202132;28;20193;-46
2023/11/29 13:52:06;;;;;;;9.13;6.23;;;;;;;-0.79;98.16;96937.38;6199617;28;20308;-47
2023/11/29 13:55:21;;;;;;;7.30;5.53;;;;;;;-0.92;99.01;96940.72;6219912;28;20197;-47
2023/11/29 13:58:23;;;;;;;8.13;6.30;;;;;;;-1.16;99.56;96944.50;6203280;28;20589;-47
2023/11/29 14:01:26;;;;;;;8.43;6.40;;;;;;;-1.35;100.00;96943.28;6214325;28;20335;-46
2023/11/29 14:04:29;;;;;;;7.47;5.67;;;;;;;-1.43;100.00;96940.81;6206649;28;20201;-49
2023/11/29 14:07:31;;;;;;;7.57;6.07;;;;;;;-1.56;100.00;96953.72;6202141;28;20190;-49
2023/11/29 14:10:34;;;;;;;9.33;6.63;;;;;;;-1.72;100.00;96943.47;6205756;28;20193;-48
2023/11/29 14:13:36;;;;;;;9.83;6.10;;;;;;;-1.88;100.00;96936.63;6206238;28;20205;-47
2023/11/29 14:16:40;;;;;;;9.17;6.63;;;;;;;-1.94;100.00;96940.78;6206153;28;20212;-49